createdAt,value
2023-04-18T00:05:02.629Z,84.14
2023-04-18T00:10:07.532Z,84.08
2023-04-18T00:15:11.905Z,84.28
2023-04-18T00:20:15.323Z,84.52
2023-04-18T00:25:18.353Z,84.68
2023-04-18T00:30:21.622Z,84.79
2023-04-18T00:35:25.278Z,85.06
2023-04-18T00:40:28.349Z,84.88
2023-04-18T00:45:31.906Z,84.78
2023-04-18T00:50:37.823Z,84.81
2023-04-18T00:55:41.722Z,84.78
2023-04-18T01:00:44.771Z,84.78
2023-04-18T01:05:47.976Z,84.94
2023-04-18T01:10:51.397Z,85.10
2023-04-18T01:15:57.679Z,85.24
2023-04-18T01:21:01.195Z,85.29
2023-04-18T01:26:04.441Z,85.26
2023-04-18T01:31:07.521Z,85.22
2023-04-18T01:36:10.715Z,85.60
2023-04-18T01:41:13.818Z,85.75
2023-04-18T01:46:17.177Z,85.47
2023-04-18T01:51:20.340Z,85.40
2023-04-18T01:56:23.549Z,85.22
2023-04-18T02:01:26.966Z,85.16
2023-04-18T02:06:31.110Z,85.44
2023-04-18T02:11:34.193Z,85.62
2023-04-18T02:16:37.333Z,85.52
2023-04-18T02:21:42.106Z,85.56
2023-04-18T02:26:45.156Z,85.46
2023-04-18T02:31:48.408Z,85.58
2023-04-18T02:36:51.582Z,85.94
2023-04-18T02:41:54.588Z,85.88
2023-04-18T02:46:57.778Z,86.13
2023-04-18T02:52:01.003Z,86.31
2023-04-18T02:57:04.210Z,86.53
2023-04-18T03:02:07.362Z,86.42
2023-04-18T03:07:10.522Z,86.51
2023-04-18T03:12:13.557Z,86.54
2023-04-18T03:17:16.776Z,87.01
2023-04-18T03:22:20.039Z,87.12
2023-04-18T03:27:23.089Z,87.18
2023-04-18T03:32:26.169Z,87.27
2023-04-18T03:37:29.385Z,87.19
2023-04-18T03:42:32.473Z,87.50
2023-04-18T03:47:35.744Z,87.32
2023-04-18T03:52:38.985Z,87.21
2023-04-18T03:57:42.006Z,87.29
2023-04-18T04:02:45.181Z,87.20
2023-04-18T04:07:48.634Z,86.74
2023-04-18T04:12:51.771Z,86.81
2023-04-18T04:17:54.847Z,87.29
2023-04-18T04:22:59.283Z,87.53
2023-04-18T04:28:03.004Z,87.49
2023-04-18T04:33:06.884Z,87.49
2023-04-18T04:38:12.539Z,87.28
2023-04-18T04:43:20.805Z,87.49
2023-04-18T04:48:25.026Z,87.64
2023-04-18T04:53:32.551Z,87.59
2023-04-18T04:58:35.887Z,87.78
2023-04-18T05:03:39.057Z,87.92
2023-04-18T05:08:42.173Z,88.00
2023-04-18T05:13:45.582Z,87.87
2023-04-18T05:18:48.789Z,87.98
2023-04-18T05:23:52.041Z,88.04
2023-04-18T05:28:55.621Z,88.18
2023-04-18T05:33:58.629Z,88.14
2023-04-18T05:39:01.759Z,88.08
2023-04-18T05:44:06.046Z,88.00
2023-04-18T05:49:09.212Z,87.79
2023-04-18T05:54:12.920Z,87.87
2023-04-18T05:59:16.326Z,88.03
2023-04-18T06:04:21.351Z,87.96
2023-04-18T06:09:24.672Z,87.64
2023-04-18T06:14:28.909Z,87.13
2023-04-18T06:19:33.440Z,86.87
2023-04-18T06:24:37.612Z,86.29
2023-04-18T06:29:40.897Z,85.29
2023-04-18T06:34:45.035Z,84.43
2023-04-18T06:39:48.248Z,83.64
2023-04-18T06:44:51.434Z,82.64
2023-04-18T06:49:54.629Z,81.84
2023-04-18T06:54:57.948Z,81.33
2023-04-18T07:00:01.057Z,80.65
2023-04-18T07:05:04.984Z,79.31
2023-04-18T07:10:09.952Z,78.26
2023-04-18T07:15:13.046Z,78.03
2023-04-18T07:20:16.366Z,76.81
2023-04-18T07:25:19.553Z,76.73
2023-04-18T07:30:22.865Z,76.19
2023-04-18T07:35:25.978Z,74.96
2023-04-18T07:40:29.185Z,74.53
2023-04-18T07:45:33.649Z,73.88
2023-04-18T07:50:36.732Z,73.83
2023-04-18T07:55:39.853Z,73.99
2023-04-18T08:00:45.000Z,73.50
2023-04-18T08:05:49.230Z,73.22
2023-04-18T08:10:52.341Z,71.43
2023-04-18T08:15:56.164Z,71.86
2023-04-18T08:20:59.253Z,71.21
2023-04-18T08:26:02.358Z,70.63
2023-04-18T08:31:06.109Z,68.58
2023-04-18T08:36:10.154Z,68.74
2023-04-18T08:41:14.470Z,66.07
2023-04-18T08:46:17.672Z,64.14
2023-04-18T08:51:21.819Z,63.53
2023-04-18T08:56:27.555Z,62.39
2023-04-18T09:01:49.670Z,61.76
2023-04-18T09:06:53.531Z,62.20
2023-04-18T09:12:11.440Z,60.77
2023-04-18T09:17:35.919Z,59.93
2023-04-18T09:22:53.647Z,60.38
2023-04-18T09:28:01.333Z,58.56
2023-04-18T09:33:10.060Z,58.87
2023-04-18T09:38:13.216Z,57.17
2023-04-18T09:43:20.938Z,56.79
2023-04-18T09:48:24.022Z,56.40
2023-04-18T09:53:29.148Z,57.24
2023-04-18T09:58:34.598Z,53.86
2023-04-18T10:03:47.439Z,54.79
2023-04-18T10:08:52.843Z,55.58
2023-04-18T10:14:01.437Z,54.94
2023-04-18T10:19:44.401Z,53.38
2023-04-18T10:24:53.800Z,52.19
2023-04-18T10:29:57.274Z,50.85
2023-04-18T10:35:00.791Z,52.79
2023-04-18T10:40:07.181Z,54.21
2023-04-18T10:45:28.717Z,53.00
2023-04-18T10:50:31.854Z,51.27
2023-04-18T10:55:37.029Z,51.03
2023-04-18T11:00:40.415Z,50.44
2023-04-18T11:05:43.647Z,47.60
2023-04-18T11:10:58.639Z,46.65
2023-04-18T11:16:02.660Z,46.71
2023-04-18T11:21:06.240Z,47.49
2023-04-18T11:26:09.337Z,47.12
2023-04-18T11:31:16.319Z,49.44
2023-04-18T11:36:19.443Z,50.42
2023-04-18T11:41:22.754Z,50.01
2023-04-18T11:46:39.082Z,49.54
2023-04-18T11:51:46.404Z,51.14
2023-04-18T11:56:50.000Z,49.22
2023-04-18T12:02:15.473Z,48.42
2023-04-18T12:07:41.054Z,49.24
2023-04-18T12:12:49.411Z,49.51
2023-04-18T12:17:53.028Z,48.75
2023-04-18T12:22:57.987Z,49.81
2023-04-18T12:28:15.232Z,50.28
2023-04-18T12:33:18.287Z,51.30
2023-04-18T12:38:23.713Z,52.33
2023-04-18T12:43:27.171Z,51.67
2023-04-18T12:48:30.264Z,50.79
2023-04-18T12:53:33.314Z,51.29
2023-04-18T12:58:36.376Z,52.47
2023-04-18T13:03:40.051Z,48.97
2023-04-18T13:08:43.307Z,45.99
2023-04-18T13:13:47.137Z,46.39
2023-04-18T13:18:50.146Z,47.94
2023-04-18T13:23:53.180Z,50.22
2023-04-18T13:28:56.659Z,51.59
2023-04-18T13:34:00.203Z,52.40
2023-04-18T13:39:04.935Z,53.48
2023-04-18T13:44:08.534Z,54.44
2023-04-18T13:49:11.759Z,55.80
2023-04-18T13:54:16.647Z,57.45
2023-04-18T13:59:20.207Z,57.56
2023-04-18T14:04:24.687Z,59.01
2023-04-18T14:09:28.267Z,59.37
2023-04-18T14:14:31.591Z,59.58
2023-04-18T14:19:35.113Z,58.79
2023-04-18T14:24:38.199Z,57.61
2023-04-18T14:29:41.377Z,55.55
2023-04-18T14:34:44.692Z,56.38
2023-04-18T14:39:48.758Z,58.22
2023-04-18T14:44:51.993Z,59.25
2023-04-18T14:49:55.079Z,59.65
2023-04-18T14:54:58.280Z,59.76
2023-04-18T15:00:01.646Z,59.73
2023-04-18T15:05:07.457Z,59.76
2023-04-18T15:10:12.883Z,60.11
2023-04-18T15:15:16.425Z,59.99
2023-04-18T15:20:21.318Z,60.73
2023-04-18T15:25:26.633Z,61.63
2023-04-18T15:30:29.769Z,62.65
2023-04-18T15:35:33.156Z,62.97
2023-04-18T15:40:36.809Z,63.40
2023-04-18T15:45:40.268Z,63.69
2023-04-18T15:50:43.404Z,63.85
2023-04-18T15:55:47.146Z,64.38
2023-04-18T16:00:52.015Z,64.56
2023-04-18T16:05:55.071Z,64.94
2023-04-18T16:10:58.271Z,65.27
2023-04-18T16:16:01.513Z,65.30
2023-04-18T16:21:05.143Z,65.45
2023-04-18T16:26:08.413Z,65.64
2023-04-18T16:31:11.651Z,66.07
2023-04-18T16:36:14.789Z,66.39
2023-04-18T16:41:17.946Z,66.69
2023-04-18T16:46:21.209Z,67.18
2023-04-18T16:51:24.278Z,67.54
2023-04-18T16:56:29.332Z,68.11
2023-04-18T17:01:33.621Z,68.07
2023-04-18T17:06:36.971Z,68.03
2023-04-18T17:11:41.324Z,67.64
2023-04-18T17:16:44.827Z,67.51
2023-04-18T17:21:49.279Z,67.67
2023-04-18T17:26:52.354Z,68.07
2023-04-18T17:31:55.586Z,68.58
2023-04-18T17:36:58.667Z,68.61
2023-04-18T17:42:02.382Z,68.96
2023-04-18T17:47:10.197Z,69.32
2023-04-18T17:52:13.608Z,69.76
2023-04-18T17:57:16.828Z,70.31
2023-04-18T18:02:20.798Z,70.50
2023-04-18T18:07:24.115Z,70.61
2023-04-18T18:12:27.375Z,70.79
2023-04-18T18:17:32.156Z,71.06
2023-04-18T18:22:35.941Z,71.13
2023-04-18T18:27:42.931Z,71.26
2023-04-18T18:32:46.512Z,71.50
2023-04-18T18:37:53.826Z,71.72
2023-04-18T18:42:57.711Z,71.71
2023-04-18T18:48:01.478Z,71.59
2023-04-18T18:53:06.360Z,71.31
2023-04-18T18:58:12.225Z,71.15
2023-04-18T19:03:19.480Z,70.77
2023-04-18T19:08:22.945Z,70.80
2023-04-18T19:13:26.599Z,70.61
2023-04-18T19:18:29.869Z,70.29
2023-04-18T19:23:33.188Z,70.07
2023-04-18T19:28:36.502Z,69.99
2023-04-18T19:33:40.136Z,70.08
2023-04-18T19:38:43.438Z,69.61
2023-04-18T19:43:46.944Z,69.11
2023-04-18T19:48:50.046Z,68.80
2023-04-18T19:53:55.307Z,68.82
2023-04-18T19:58:58.747Z,66.49
2023-04-18T20:04:02.433Z,65.39
2023-04-18T20:09:05.987Z,64.02
2023-04-18T20:14:12.636Z,64.50
2023-04-18T20:19:16.259Z,66.26
2023-04-18T20:24:21.325Z,68.60
2023-04-18T20:29:24.523Z,69.61
2023-04-18T20:34:27.847Z,70.14
2023-04-18T20:39:30.941Z,70.29
2023-04-18T20:44:35.019Z,70.56
2023-04-18T20:49:38.593Z,70.97
2023-04-18T20:54:41.993Z,71.39
2023-04-18T20:59:45.203Z,71.43
2023-04-18T21:04:49.000Z,71.78
2023-04-18T21:09:52.236Z,71.89
2023-04-18T21:14:55.347Z,71.96
2023-04-18T21:19:58.556Z,71.93
2023-04-18T21:25:01.775Z,71.89
2023-04-18T21:30:06.426Z,71.76
2023-04-18T21:35:10.431Z,71.90
2023-04-18T21:40:13.745Z,71.96
2023-04-18T21:45:18.126Z,72.37
2023-04-18T21:50:21.593Z,72.61
2023-04-18T21:55:24.696Z,72.98
2023-04-18T22:00:28.021Z,73.21
2023-04-18T22:05:33.512Z,73.78
2023-04-18T22:10:36.744Z,74.13
2023-04-18T22:15:39.993Z,74.46
2023-04-18T22:20:43.350Z,74.69
2023-04-18T22:25:46.413Z,74.39
2023-04-18T22:30:51.649Z,74.29
2023-04-18T22:35:55.803Z,74.31
2023-04-18T22:41:01.890Z,74.44
2023-04-18T22:46:05.524Z,74.83
2023-04-18T22:51:08.600Z,75.01
2023-04-18T22:56:11.650Z,75.18
2023-04-18T23:01:14.738Z,75.47
2023-04-18T23:06:17.943Z,75.76
2023-04-18T23:11:21.847Z,76.16
2023-04-18T23:16:25.001Z,76.32
2023-04-18T23:21:28.401Z,76.32
2023-04-18T23:26:31.480Z,76.19
2023-04-18T23:31:34.909Z,76.41
2023-04-18T23:36:38.207Z,76.86
2023-04-18T23:41:41.203Z,77.01
2023-04-18T23:46:44.282Z,76.94
2023-04-18T23:51:47.617Z,77.04
2023-04-18T23:56:50.943Z,77.13
